createdAt,value
2023-03-18T00:00:12.382Z,101351.33
2023-03-18T00:03:00.477Z,101352.10
2023-03-18T00:05:28.811Z,101351.20
2023-03-18T00:07:57.270Z,101355.52
2023-03-18T00:10:25.305Z,101355.51
2023-03-18T00:12:53.699Z,101352.12
2023-03-18T00:15:21.728Z,101352.81
2023-03-18T00:17:49.798Z,101347.13
2023-03-18T00:20:18.606Z,101350.64
2023-03-18T00:22:46.966Z,101349.58
2023-03-18T00:25:15.570Z,101347.02
2023-03-18T00:27:43.701Z,101344.05
2023-03-18T00:30:12.570Z,101343.98
2023-03-18T00:32:41.680Z,101339.77
2023-03-18T00:35:10.964Z,101336.98
2023-03-18T00:37:40.039Z,101334.08
2023-03-18T00:40:17.578Z,101332.95
2023-03-18T00:42:50.708Z,101326.66
2023-03-18T00:45:18.739Z,101330.61
2023-03-18T00:47:48.543Z,101335.05
2023-03-18T00:50:16.954Z,101330.88
2023-03-18T00:52:45.758Z,101328.98
2023-03-18T00:55:14.179Z,101323.98
2023-03-18T00:57:42.419Z,101321.69
2023-03-18T01:00:11.672Z,101316.31
2023-03-18T01:02:41.440Z,101314.09
2023-03-18T01:05:14.052Z,101306.35
2023-03-18T01:07:42.791Z,101304.73
2023-03-18T01:10:14.727Z,101304.34
2023-03-18T01:12:46.964Z,101301.27
2023-03-18T01:15:17.747Z,101299.36
2023-03-18T01:17:46.324Z,101300.20
2023-03-18T01:20:18.144Z,101297.31
2023-03-18T01:22:47.180Z,101305.58
2023-03-18T01:25:16.522Z,101302.46
2023-03-18T01:27:46.504Z,101306.71
2023-03-18T01:30:14.883Z,101299.23
2023-03-18T01:32:44.118Z,101301.73
2023-03-18T01:35:12.880Z,101301.42
2023-03-18T01:37:47.280Z,101298.99
2023-03-18T01:40:16.437Z,101302.18
2023-03-18T01:42:57.439Z,101310.80
2023-03-18T01:45:28.732Z,101306.60
2023-03-18T01:47:58.578Z,101301.02
2023-03-18T01:50:33.568Z,101296.30
2023-03-18T01:53:13.678Z,101292.77
2023-03-18T01:55:41.954Z,101296.45
2023-03-18T01:58:14.754Z,101300.48
2023-03-18T02:00:47.173Z,101299.70
2023-03-18T02:03:15.397Z,101299.93
2023-03-18T02:05:44.284Z,101300.39
2023-03-18T02:08:12.339Z,101302.01
2023-03-18T02:10:40.357Z,101300.55
2023-03-18T02:13:12.716Z,101304.28
2023-03-18T02:15:56.342Z,101301.58
2023-03-18T02:18:31.434Z,101300.81
2023-03-18T02:21:28.546Z,101303.51
2023-03-18T02:24:05.972Z,101297.69
2023-03-18T02:27:02.375Z,101290.69
2023-03-18T02:29:37.362Z,101290.14
2023-03-18T02:32:08.338Z,101295.98
2023-03-18T02:34:36.551Z,101294.03
2023-03-18T02:37:04.594Z,101290.25
2023-03-18T02:39:33.126Z,101289.85
2023-03-18T02:42:01.458Z,101289.20
2023-03-18T02:44:30.088Z,101292.29
2023-03-18T02:47:24.666Z,101299.00
2023-03-18T02:49:53.561Z,101296.87
2023-03-18T02:52:22.041Z,101291.73
2023-03-18T02:54:50.008Z,101292.29
2023-03-18T02:57:18.045Z,101285.28
2023-03-18T02:59:47.306Z,101287.31
2023-03-18T03:02:15.442Z,101289.43
2023-03-18T03:04:43.926Z,101287.52
2023-03-18T03:07:12.729Z,101291.39
2023-03-18T03:09:44.830Z,101290.83
2023-03-18T03:12:13.245Z,101286.12
2023-03-18T03:14:45.662Z,101281.92
2023-03-18T03:17:14.239Z,101278.67
2023-03-18T03:19:46.086Z,101278.71
2023-03-18T03:22:17.732Z,101277.51
2023-03-18T03:24:48.916Z,101279.13
2023-03-18T03:27:16.921Z,101281.18
2023-03-18T03:29:45.098Z,101280.05
2023-03-18T03:32:13.322Z,101278.86
2023-03-18T03:34:41.779Z,101279.63
2023-03-18T03:37:13.518Z,101283.77
2023-03-18T03:39:41.656Z,101283.10
2023-03-18T03:42:09.842Z,101279.99
2023-03-18T03:44:38.028Z,101277.02
2023-03-18T03:47:06.880Z,101276.28
2023-03-18T03:49:35.040Z,101273.33
2023-03-18T03:52:03.075Z,101277.27
2023-03-18T03:54:31.627Z,101270.52
2023-03-18T03:56:59.791Z,101268.36
2023-03-18T03:59:28.380Z,101267.77
2023-03-18T04:02:09.094Z,101262.09
2023-03-18T04:04:37.783Z,101261.39
2023-03-18T04:07:06.414Z,101257.16
2023-03-18T04:09:36.256Z,101253.63
2023-03-18T04:12:05.733Z,101256.73
2023-03-18T04:14:34.415Z,101257.85
2023-03-18T04:17:03.109Z,101260.66
2023-03-18T04:19:31.485Z,101263.45
2023-03-18T04:22:00.426Z,101260.86
2023-03-18T04:24:28.593Z,101263.25
2023-03-18T04:26:56.872Z,101263.41
2023-03-18T04:29:25.394Z,101267.20
2023-03-18T04:31:53.689Z,101266.88
2023-03-18T04:34:22.498Z,101266.66
2023-03-18T04:36:50.909Z,101265.80
2023-03-18T04:39:18.937Z,101266.08
2023-03-18T04:41:47.403Z,101267.11
2023-03-18T04:44:17.616Z,101271.45
2023-03-18T04:46:51.368Z,101266.43
2023-03-18T04:49:21.607Z,101275.38
2023-03-18T04:51:49.669Z,101274.77
2023-03-18T04:54:24.827Z,101274.84
2023-03-18T04:56:54.604Z,101270.27
2023-03-18T04:59:23.133Z,101268.02
2023-03-18T05:01:51.599Z,101268.65
2023-03-18T05:04:19.698Z,101273.16
2023-03-18T05:06:52.312Z,101275.33
2023-03-18T05:09:24.041Z,101276.61
2023-03-18T05:11:53.306Z,101271.45
2023-03-18T05:14:47.442Z,101263.88
2023-03-18T05:17:16.343Z,101260.48
2023-03-18T05:19:49.485Z,101260.39
2023-03-18T05:22:22.212Z,101259.85
2023-03-18T05:24:53.971Z,101256.11
2023-03-18T05:27:22.801Z,101251.68
2023-03-18T05:29:59.496Z,101251.11
2023-03-18T05:32:34.720Z,101244.39
2023-03-18T05:35:05.668Z,101238.45
2023-03-18T05:37:36.019Z,101237.11
2023-03-18T05:40:11.799Z,101233.46
2023-03-18T05:42:55.452Z,101229.02
2023-03-18T05:45:26.306Z,101224.05
2023-03-18T05:47:55.489Z,101223.98
2023-03-18T05:50:39.934Z,101225.59
2023-03-18T05:53:11.103Z,101227.20
2023-03-18T05:55:41.173Z,101229.13
2023-03-18T05:58:09.297Z,101223.79
2023-03-18T06:00:37.770Z,101227.52
2023-03-18T06:03:07.713Z,101224.31
2023-03-18T06:05:36.054Z,101225.61
2023-03-18T06:08:04.544Z,101225.54
2023-03-18T06:10:33.671Z,101222.02
2023-03-18T06:13:01.746Z,101224.73
2023-03-18T06:15:32.580Z,101228.41
2023-03-18T06:18:01.844Z,101230.52
2023-03-18T06:20:30.362Z,101228.27
2023-03-18T06:22:58.976Z,101233.56
2023-03-18T06:25:28.157Z,101235.92
2023-03-18T06:27:56.260Z,101242.58
2023-03-18T06:30:26.723Z,101242.73
2023-03-18T06:32:55.575Z,101246.98
2023-03-18T06:35:30.497Z,101246.16
2023-03-18T06:37:58.809Z,101242.92
2023-03-18T06:40:27.042Z,101241.86
2023-03-18T06:42:57.065Z,101243.83
2023-03-18T06:45:35.991Z,101245.31
2023-03-18T06:48:10.915Z,101243.58
2023-03-18T06:50:43.008Z,101243.31
2023-03-18T06:53:23.665Z,101245.52
2023-03-18T06:55:54.128Z,101249.95
2023-03-18T06:58:24.937Z,101251.36
2023-03-18T07:01:05.762Z,101251.54
2023-03-18T07:03:39.389Z,101244.98
2023-03-18T07:06:09.952Z,101252.09
2023-03-18T07:08:41.314Z,101260.39
2023-03-18T07:11:13.167Z,101258.45
2023-03-18T07:13:42.530Z,101253.87
2023-03-18T07:16:21.091Z,101255.90
2023-03-18T07:18:53.038Z,101254.96
2023-03-18T07:21:21.633Z,101253.44
2023-03-18T07:23:49.809Z,101253.07
2023-03-18T07:26:18.802Z,101260.30
2023-03-18T07:28:48.173Z,101264.78
2023-03-18T07:31:17.779Z,101262.27
2023-03-18T07:33:46.909Z,101262.61
2023-03-18T07:36:15.873Z,101260.72
2023-03-18T07:38:44.495Z,101259.00
2023-03-18T07:41:12.779Z,101264.32
2023-03-18T07:43:41.066Z,101256.11
2023-03-18T07:46:09.595Z,101266.73
2023-03-18T07:48:37.645Z,101258.92
2023-03-18T07:51:05.867Z,101261.14
2023-03-18T07:53:38.266Z,101262.42
2023-03-18T07:56:11.657Z,101259.12
2023-03-18T07:58:40.095Z,101256.16
2023-03-18T08:01:21.190Z,101252.99
2023-03-18T08:03:50.911Z,101251.52
2023-03-18T08:06:20.688Z,101257.06
2023-03-18T08:08:49.382Z,101252.98
2023-03-18T08:11:17.561Z,101249.45
2023-03-18T08:13:45.736Z,101253.77
2023-03-18T08:16:13.827Z,101247.29
2023-03-18T08:18:42.211Z,101241.59
2023-03-18T08:21:10.886Z,101242.05
2023-03-18T08:23:38.868Z,101241.10
2023-03-18T08:26:07.813Z,101242.09
2023-03-18T08:28:35.973Z,101243.92
2023-03-18T08:31:05.867Z,101240.77
2023-03-18T08:33:36.750Z,101240.90
2023-03-18T08:36:05.153Z,101241.77
2023-03-18T08:38:33.509Z,101240.02
2023-03-18T08:41:01.811Z,101235.54
2023-03-18T08:43:29.820Z,101237.80
2023-03-18T08:45:58.931Z,101241.14
2023-03-18T08:48:27.130Z,101229.80
2023-03-18T08:50:55.140Z,101227.48
2023-03-18T08:53:23.487Z,101230.27
2023-03-18T08:55:52.854Z,101230.65
2023-03-18T08:58:21.084Z,101222.85
2023-03-18T09:00:50.668Z,101223.66
2023-03-18T09:03:18.891Z,101226.02
2023-03-18T09:05:49.279Z,101223.77
2023-03-18T09:08:17.431Z,101224.04
2023-03-18T09:10:46.179Z,101219.11
2023-03-18T09:13:17.114Z,101220.25
2023-03-18T09:15:45.300Z,101220.20
2023-03-18T09:18:16.785Z,101219.61
2023-03-18T09:20:45.739Z,101220.58
2023-03-18T09:23:13.877Z,101218.95
2023-03-18T09:25:42.967Z,101217.30
2023-03-18T09:28:11.261Z,101213.13
2023-03-18T09:30:39.943Z,101215.67
2023-03-18T09:33:09.542Z,101215.45
2023-03-18T09:35:38.207Z,101211.91
2023-03-18T09:38:07.436Z,101209.92
2023-03-18T09:40:38.588Z,101199.36
2023-03-18T09:43:26.606Z,101200.61
2023-03-18T09:46:20.201Z,101196.01
2023-03-18T09:49:00.531Z,101192.86
2023-03-18T09:51:37.804Z,101187.52
2023-03-18T09:54:14.641Z,101187.48
2023-03-18T09:56:42.855Z,101187.05
2023-03-18T09:59:37.794Z,101191.15
2023-03-18T10:02:17.282Z,101186.48
2023-03-18T10:04:48.518Z,101187.77
2023-03-18T10:07:17.904Z,101193.77
2023-03-18T10:09:48.364Z,101188.42
2023-03-18T10:12:31.851Z,101177.88
2023-03-18T10:15:05.182Z,101178.93
2023-03-18T10:17:41.319Z,101181.72
2023-03-18T10:20:16.856Z,101179.36
2023-03-18T10:23:22.359Z,101177.15
2023-03-18T10:25:53.750Z,101176.47
2023-03-18T10:28:33.697Z,101169.64
2023-03-18T10:31:04.810Z,101169.85
2023-03-18T10:33:55.247Z,101168.31
2023-03-18T10:36:52.595Z,101166.77
2023-03-18T10:39:22.668Z,101156.24
2023-03-18T10:41:52.159Z,101150.20
2023-03-18T10:44:46.587Z,101151.21
2023-03-18T10:47:21.284Z,101145.64
2023-03-18T10:50:12.177Z,101150.30
2023-03-18T10:53:01.521Z,101149.13
2023-03-18T10:55:35.669Z,101148.02
2023-03-18T10:58:17.989Z,101146.16
2023-03-18T11:00:46.103Z,101144.08
2023-03-18T11:03:21.093Z,101149.98
2023-03-18T11:05:50.463Z,101150.07
2023-03-18T11:08:34.857Z,101146.02
2023-03-18T11:11:27.317Z,101148.97
2023-03-18T11:13:57.137Z,101153.38
2023-03-18T11:16:26.207Z,101151.09
2023-03-18T11:18:54.990Z,101155.67
2023-03-18T11:21:24.290Z,101154.06
2023-03-18T11:24:09.254Z,101153.42
2023-03-18T11:26:49.421Z,101150.63
2023-03-18T11:29:19.141Z,101153.98
2023-03-18T11:31:50.130Z,101151.52
2023-03-18T11:34:20.197Z,101151.57
2023-03-18T11:37:05.605Z,101143.94
2023-03-18T11:39:37.701Z,101137.77
2023-03-18T11:42:17.578Z,101138.55
2023-03-18T11:44:46.960Z,101133.40
2023-03-18T11:47:25.323Z,101133.66
2023-03-18T11:49:53.703Z,101132.16
2023-03-18T11:52:39.445Z,101128.82
2023-03-18T11:55:28.929Z,101126.92
2023-03-18T11:58:29.079Z,101125.95
2023-03-18T12:01:00.659Z,101121.27
2023-03-18T12:04:07.360Z,101117.40
2023-03-18T12:06:40.639Z,101126.66
2023-03-18T12:09:27.985Z,101121.66
2023-03-18T12:12:19.152Z,101124.05
2023-03-18T12:14:54.869Z,101121.58
2023-03-18T12:17:34.788Z,101122.40
2023-03-18T12:20:07.058Z,101110.55
2023-03-18T12:22:49.184Z,101121.77
2023-03-18T12:25:31.606Z,101122.02
2023-03-18T12:28:24.999Z,101117.95
2023-03-18T12:31:12.020Z,101118.30
2023-03-18T12:33:59.108Z,101119.47
2023-03-18T12:36:27.321Z,101128.67
2023-03-18T12:39:04.205Z,101123.23
2023-03-18T12:41:53.635Z,101120.60
2023-03-18T12:44:29.760Z,101120.89
2023-03-18T12:47:02.766Z,101122.48
2023-03-18T12:49:42.327Z,101114.00
2023-03-18T12:52:41.195Z,101121.77
2023-03-18T12:55:11.235Z,101122.91
2023-03-18T12:57:59.794Z,101122.72
2023-03-18T13:00:31.777Z,101119.01
2023-03-18T13:03:06.851Z,101124.79
2023-03-18T13:05:47.448Z,101126.30
2023-03-18T13:08:54.229Z,101128.01
2023-03-18T13:12:02.077Z,101128.70
2023-03-18T13:14:48.631Z,101124.80
2023-03-18T13:17:21.826Z,101127.31
2023-03-18T13:19:49.776Z,101127.90
2023-03-18T13:22:42.112Z,101123.67
2023-03-18T13:25:37.447Z,101130.88
2023-03-18T13:28:17.349Z,101128.72
2023-03-18T13:31:09.987Z,101127.02
2023-03-18T13:34:00.740Z,101125.20
2023-03-18T13:36:57.376Z,101124.09
2023-03-18T13:39:47.983Z,101123.20
2023-03-18T13:42:27.351Z,101124.33
2023-03-18T13:44:59.938Z,101117.76
2023-03-18T13:47:46.435Z,101119.11
2023-03-18T13:50:20.516Z,101117.34
2023-03-18T13:52:48.634Z,101118.95
2023-03-18T13:55:47.528Z,101123.72
2023-03-18T13:58:23.111Z,101125.78
2023-03-18T14:01:00.528Z,101123.15
2023-03-18T14:03:48.126Z,101120.08
2023-03-18T14:06:16.204Z,101115.98
2023-03-18T14:08:49.802Z,101118.05
2023-03-18T14:11:17.894Z,101121.38
2023-03-18T14:14:02.278Z,101122.17
2023-03-18T14:16:48.398Z,101119.48
2023-03-18T14:19:28.583Z,101117.23
2023-03-18T14:22:21.746Z,101112.45
2023-03-18T14:25:29.331Z,101108.25
2023-03-18T14:28:14.055Z,101108.95
2023-03-18T14:30:49.410Z,101107.08
2023-03-18T14:33:20.413Z,101108.32
2023-03-18T14:36:10.237Z,101107.70
2023-03-18T14:38:38.605Z,101105.30
2023-03-18T14:41:17.347Z,101103.91
2023-03-18T14:44:06.688Z,101102.91
2023-03-18T14:46:37.909Z,101091.73
2023-03-18T14:49:34.186Z,101093.86
2023-03-18T14:52:07.460Z,101087.23
2023-03-18T14:54:38.879Z,101085.26
2023-03-18T14:57:06.885Z,101091.54
2023-03-18T14:59:34.857Z,101088.45
2023-03-18T15:02:03.361Z,101091.46
2023-03-18T15:04:31.332Z,101093.92
2023-03-18T15:07:01.346Z,101092.94
2023-03-18T15:09:30.571Z,101091.48
2023-03-18T15:11:58.481Z,101090.81
2023-03-18T15:14:31.576Z,101090.41
2023-03-18T15:17:01.057Z,101093.16
2023-03-18T15:19:29.239Z,101092.81
2023-03-18T15:21:58.158Z,101090.45
2023-03-18T15:24:26.747Z,101089.42
2023-03-18T15:27:05.790Z,101089.86
2023-03-18T15:29:38.832Z,101093.90
2023-03-18T15:32:19.218Z,101095.41
2023-03-18T15:34:53.156Z,101089.89
2023-03-18T15:37:34.864Z,101092.11
2023-03-18T15:40:26.229Z,101094.84
2023-03-18T15:42:56.846Z,101093.95
2023-03-18T15:45:27.321Z,101089.16
2023-03-18T15:47:58.323Z,101087.69
2023-03-18T15:50:30.655Z,101091.15
2023-03-18T15:53:23.607Z,101094.58
2023-03-18T15:55:56.395Z,101094.21
2023-03-18T15:58:28.702Z,101096.96
2023-03-18T16:00:56.765Z,101094.94
2023-03-18T16:03:31.342Z,101098.89
2023-03-18T16:05:59.373Z,101097.89
2023-03-18T16:08:27.820Z,101096.39
2023-03-18T16:10:57.671Z,101101.52
2023-03-18T16:13:27.918Z,101100.34
2023-03-18T16:15:56.265Z,101100.33
2023-03-18T16:18:24.890Z,101104.49
2023-03-18T16:20:54.124Z,101106.56
2023-03-18T16:23:22.132Z,101107.52
2023-03-18T16:25:51.845Z,101110.61
2023-03-18T16:28:22.288Z,101109.45
2023-03-18T16:30:52.307Z,101111.14
2023-03-18T16:33:20.574Z,101113.77
2023-03-18T16:35:58.734Z,101114.33
2023-03-18T16:38:27.180Z,101113.53
2023-03-18T16:40:56.198Z,101110.60
2023-03-18T16:43:28.115Z,101108.55
2023-03-18T16:46:00.752Z,101107.13
2023-03-18T16:48:28.814Z,101109.65
2023-03-18T16:50:58.299Z,101109.33
2023-03-18T16:53:29.733Z,101113.83
2023-03-18T16:56:00.158Z,101118.67
2023-03-18T16:58:35.238Z,101123.11
2023-03-18T17:01:06.317Z,101126.38
2023-03-18T17:03:36.140Z,101125.84
2023-03-18T17:06:07.112Z,101125.25
2023-03-18T17:08:36.866Z,101130.21
2023-03-18T17:11:05.069Z,101130.14
2023-03-18T17:13:34.149Z,101132.97
2023-03-18T17:16:02.754Z,101135.96
2023-03-18T17:18:31.182Z,101139.33
2023-03-18T17:20:59.320Z,101138.11
2023-03-18T17:23:28.888Z,101139.75
2023-03-18T17:26:08.174Z,101144.35
2023-03-18T17:28:39.397Z,101145.58
2023-03-18T17:31:07.866Z,101143.92
2023-03-18T17:33:37.259Z,101146.43
2023-03-18T17:36:08.380Z,101148.63
2023-03-18T17:38:36.430Z,101152.41
2023-03-18T17:41:06.518Z,101150.66
2023-03-18T17:43:35.636Z,101152.86
2023-03-18T17:46:05.083Z,101156.66
2023-03-18T17:48:34.394Z,101157.14
2023-03-18T17:51:03.059Z,101159.30
2023-03-18T17:53:38.783Z,101163.48
2023-03-18T17:56:08.512Z,101162.82
2023-03-18T17:58:36.524Z,101161.30
2023-03-18T18:01:15.910Z,101160.98
2023-03-18T18:03:43.875Z,101162.24
2023-03-18T18:06:19.255Z,101160.29
2023-03-18T18:08:48.493Z,101157.52
2023-03-18T18:11:20.193Z,101161.96
2023-03-18T18:13:48.732Z,101158.15
2023-03-18T18:16:16.811Z,101157.95
2023-03-18T18:18:44.689Z,101157.90
2023-03-18T18:21:15.156Z,101157.33
2023-03-18T18:23:44.924Z,101157.58
2023-03-18T18:26:14.861Z,101158.29
2023-03-18T18:28:48.216Z,101158.43
2023-03-18T18:31:19.838Z,101161.32
2023-03-18T18:33:50.231Z,101161.48
2023-03-18T18:36:18.746Z,101159.95
2023-03-18T18:38:46.680Z,101157.00
2023-03-18T18:41:14.660Z,101159.74
2023-03-18T18:43:42.614Z,101162.80
2023-03-18T18:46:17.608Z,101164.47
2023-03-18T18:48:49.341Z,101164.49
2023-03-18T18:51:19.148Z,101163.73
2023-03-18T18:53:47.641Z,101164.78
2023-03-18T18:56:18.801Z,101159.95
2023-03-18T18:58:47.256Z,101162.80
2023-03-18T19:01:15.312Z,101160.63
2023-03-18T19:03:43.891Z,101164.65
2023-03-18T19:06:32.327Z,101167.34
2023-03-18T19:09:00.885Z,101168.66
2023-03-18T19:11:28.974Z,101173.71
2023-03-18T19:14:17.616Z,101176.66
2023-03-18T19:16:45.799Z,101173.08
2023-03-18T19:19:15.228Z,101172.94
2023-03-18T19:21:43.900Z,101177.36
2023-03-18T19:24:32.874Z,101177.21
2023-03-18T19:27:02.746Z,101180.70
2023-03-18T19:29:32.631Z,101175.87
2023-03-18T19:32:01.592Z,101181.40
2023-03-18T19:34:32.275Z,101181.95
2023-03-18T19:37:02.842Z,101181.47
2023-03-18T19:39:30.884Z,101179.31
2023-03-18T19:41:58.814Z,101181.33
2023-03-18T19:44:26.989Z,101177.81
2023-03-18T19:46:56.421Z,101178.13
2023-03-18T19:49:36.797Z,101181.20
2023-03-18T19:52:31.976Z,101182.80
2023-03-18T19:55:02.597Z,101184.55
2023-03-18T19:57:30.517Z,101183.20
2023-03-18T19:59:58.985Z,101183.02
2023-03-18T20:02:34.020Z,101183.33
2023-03-18T20:05:04.183Z,101183.34
2023-03-18T20:07:35.360Z,101181.00
2023-03-18T20:10:03.432Z,101181.02
2023-03-18T20:12:33.125Z,101183.98
2023-03-18T20:15:01.051Z,101184.61
2023-03-18T20:17:30.532Z,101184.44
2023-03-18T20:19:58.934Z,101186.49
2023-03-18T20:22:30.106Z,101182.64
2023-03-18T20:24:58.150Z,101185.36
2023-03-18T20:27:26.146Z,101180.85
2023-03-18T20:29:54.086Z,101181.07
2023-03-18T20:32:22.156Z,101184.98
2023-03-18T20:34:50.700Z,101185.69
2023-03-18T20:37:28.144Z,101185.79
2023-03-18T20:39:56.643Z,101182.43
2023-03-18T20:42:24.827Z,101181.20
2023-03-18T20:44:52.906Z,101183.65
2023-03-18T20:47:20.900Z,101187.70
2023-03-18T20:49:49.340Z,101186.34
2023-03-18T20:52:23.234Z,101186.20
2023-03-18T20:54:51.429Z,101182.04
2023-03-18T20:57:19.407Z,101183.69
2023-03-18T20:59:47.577Z,101184.48
2023-03-18T21:02:24.662Z,101178.81
2023-03-18T21:04:52.626Z,101179.73
2023-03-18T21:07:20.959Z,101180.67
2023-03-18T21:09:49.039Z,101181.15
2023-03-18T21:12:17.045Z,101175.52
2023-03-18T21:14:45.639Z,101181.27
2023-03-18T21:17:20.967Z,101182.08
2023-03-18T21:19:49.206Z,101182.83
2023-03-18T21:22:39.940Z,101181.98
2023-03-18T21:25:17.831Z,101183.65
2023-03-18T21:27:46.312Z,101184.40
2023-03-18T21:30:15.233Z,101182.30
2023-03-18T21:32:44.842Z,101181.14
2023-03-18T21:35:24.058Z,101178.18
2023-03-18T21:37:52.794Z,101177.15
2023-03-18T21:40:23.236Z,101176.54
2023-03-18T21:42:51.674Z,101175.50
2023-03-18T21:45:21.405Z,101177.24
2023-03-18T21:47:49.484Z,101174.34
2023-03-18T21:50:25.309Z,101173.79
2023-03-18T21:52:55.046Z,101172.15
2023-03-18T21:55:23.055Z,101167.81
2023-03-18T21:57:51.152Z,101169.59
2023-03-18T22:00:20.341Z,101169.95
2023-03-18T22:02:48.476Z,101168.52
2023-03-18T22:05:21.968Z,101167.43
2023-03-18T22:07:51.044Z,101165.08
2023-03-18T22:10:20.840Z,101166.05
2023-03-18T22:12:49.001Z,101164.02
2023-03-18T22:15:36.848Z,101165.20
2023-03-18T22:18:05.080Z,101164.42
2023-03-18T22:20:35.253Z,101164.15
2023-03-18T22:23:16.756Z,101168.75
2023-03-18T22:25:46.150Z,101168.11
2023-03-18T22:28:14.186Z,101170.86
2023-03-18T22:30:43.112Z,101171.14
2023-03-18T22:33:17.671Z,101171.95
2023-03-18T22:35:45.982Z,101174.95
2023-03-18T22:38:17.799Z,101178.48
2023-03-18T22:40:46.720Z,101173.79
2023-03-18T22:43:26.489Z,101174.63
2023-03-18T22:45:54.434Z,101171.31
2023-03-18T22:48:22.654Z,101170.93
2023-03-18T22:50:50.545Z,101170.84
2023-03-18T22:53:23.474Z,101170.36
2023-03-18T22:55:52.063Z,101168.31
2023-03-18T22:58:22.590Z,101171.99
2023-03-18T23:00:50.592Z,101167.86
2023-03-18T23:03:20.127Z,101167.02
2023-03-18T23:05:49.569Z,101171.44
2023-03-18T23:08:18.185Z,101167.23
2023-03-18T23:10:46.475Z,101172.93
2023-03-18T23:13:19.257Z,101171.91
2023-03-18T23:15:47.286Z,101169.89
2023-03-18T23:18:16.796Z,101172.71
2023-03-18T23:20:46.068Z,101174.91
2023-03-18T23:23:14.302Z,101176.89
2023-03-18T23:25:43.511Z,101179.09
2023-03-18T23:28:12.048Z,101179.59
2023-03-18T23:30:41.522Z,101176.63
2023-03-18T23:33:09.737Z,101174.05
2023-03-18T23:35:38.211Z,101178.11
2023-03-18T23:38:06.655Z,101180.29
2023-03-18T23:40:34.569Z,101178.04
2023-03-18T23:43:03.624Z,101180.12
2023-03-18T23:45:32.051Z,101182.47
2023-03-18T23:48:00.346Z,101182.39
2023-03-18T23:50:28.299Z,101187.12
2023-03-18T23:52:56.344Z,101186.07
2023-03-18T23:55:45.469Z,101191.34
2023-03-18T23:58:12.177Z,101190.10
